Time;durP1;ratioP1;P1;durP2;ratioP2;P2;SDS_P1;SDS_P2;PMS_P1;PMS_P2;Temp;Humidity;BMP_temperature;BMP_pressure;BME280_temperature;BME280_humidity;BME280_pressure;Samples;Min_cycle;Max_cycle;Signal;HPM_P1;HPM_P2
2023/06/26 00:00:48;;;;;;;7.93;4.32;;;21.80;99.90;;;;;;5044320;28;20029;-88
2023/06/26 00:03:15;;;;;;;9.55;3.97;;;21.70;99.90;;;;;;5039593;28;20025;-88
2023/06/26 00:05:41;;;;;;;7.68;3.67;;;21.80;99.90;;;;;;5040463;28;20071;-86
2023/06/26 00:08:07;;;;;;;7.50;4.28;;;21.80;99.90;;;;;;5041077;28;20071;-87
2023/06/26 00:10:32;;;;;;;7.50;4.63;;;21.80;99.90;;;;;;5037091;28;20465;-88
2023/06/26 00:12:58;;;;;;;7.18;4.30;;;21.80;99.90;;;;;;5040658;28;20024;-86
2023/06/26 00:15:24;;;;;;;5.05;4.18;;;21.80;99.90;;;;;;5041316;28;20028;-86
2023/06/26 00:17:50;;;;;;;6.05;3.95;;;21.70;99.90;;;;;;5039162;28;20166;-83
2023/06/26 00:20:18;;;;;;;7.38;4.50;;;21.80;99.90;;;;;;5040596;28;20226;-85
2023/06/26 00:22:45;;;;;;;4.28;3.88;;;21.80;99.90;;;;;;5034505;28;20490;-83
2023/06/26 00:25:10;;;;;;;7.53;4.00;;;21.80;99.90;;;;;;5032436;28;20037;-87
2023/06/26 00:27:36;;;;;;;5.95;4.43;;;21.80;99.90;;;;;;5036677;28;20027;-88
2023/06/26 00:30:02;;;;;;;7.05;4.18;;;21.70;99.90;;;;;;5031732;28;20021;-84
2023/06/26 00:32:28;;;;;;;9.70;4.07;;;21.70;99.90;;;;;;5023509;28;20544;-84
2023/06/26 00:34:55;;;;;;;5.40;4.65;;;21.70;99.90;;;;;;5038321;28;20115;-81
2023/06/26 00:37:21;;;;;;;9.57;4.40;;;21.70;99.90;;;;;;5028957;28;20059;-83
2023/06/26 00:39:47;;;;;;;8.63;4.18;;;21.70;99.90;;;;;;5041282;28;20059;-85
2023/06/26 00:42:12;;;;;;;6.60;4.30;;;21.60;99.90;;;;;;5043683;28;20033;-86
2023/06/26 00:44:38;;;;;;;7.93;4.03;;;21.60;99.90;;;;;;5041620;28;20045;-86
2023/06/26 00:47:04;;;;;;;6.88;4.28;;;21.60;99.90;;;;;;5045911;28;20470;-86
2023/06/26 00:49:29;;;;;;;8.88;3.78;;;21.50;99.90;;;;;;5038755;28;20079;-87
2023/06/26 00:51:56;;;;;;;6.38;4.28;;;21.60;99.90;;;;;;5026238;28;20488;-87
2023/06/26 00:54:22;;;;;;;5.43;4.00;;;21.50;99.90;;;;;;5033432;28;20389;-87
2023/06/26 00:56:48;;;;;;;5.50;4.22;;;21.50;99.90;;;;;;5005084;28;20022;-83
2023/06/26 00:59:15;;;;;;;7.03;4.28;;;21.60;99.90;;;;;;5038435;28;20025;-83
2023/06/26 01:01:40;;;;;;;6.70;3.88;;;21.50;99.90;;;;;;5023576;28;20042;-81
2023/06/26 01:04:06;;;;;;;6.07;4.15;;;21.50;99.90;;;;;;5028935;28;20032;-85
2023/06/26 01:06:36;;;;;;;6.38;3.80;;;21.50;99.90;;;;;;5039458;28;20029;-86
2023/06/26 01:09:02;;;;;;;6.05;4.45;;;21.50;99.90;;;;;;5043926;28;20030;-85
2023/06/26 01:11:28;;;;;;;8.13;4.07;;;21.50;99.90;;;;;;5042191;28;20017;-80
2023/06/26 01:13:56;;;;;;;6.07;3.95;;;21.50;99.90;;;;;;5041685;28;20021;-82
2023/06/26 01:16:24;;;;;;;4.90;4.20;;;21.40;99.90;;;;;;5044279;28;20029;-85
2023/06/26 01:18:50;;;;;;;5.60;3.70;;;21.50;99.90;;;;;;5039586;28;20127;-85
2023/06/26 01:21:17;;;;;;;7.50;3.95;;;21.50;99.90;;;;;;5038196;28;20489;-85
2023/06/26 01:24:05;;;;;;;6.18;3.70;;;21.50;99.90;;;;;;5022106;28;20493;-82
2023/06/26 01:26:35;;;;;;;5.30;4.10;;;21.60;99.90;;;;;;5019975;28;20437;-84
2023/06/26 01:29:04;;;;;;;4.72;4.05;;;21.70;99.90;;;;;;5041333;28;20393;-87
2023/06/26 01:31:30;;;;;;;5.22;3.88;;;21.70;99.90;;;;;;5042710;28;20029;-84
2023/06/26 01:33:58;;;;;;;7.25;4.53;;;21.60;99.90;;;;;;5036841;28;20030;-83
2023/06/26 01:36:24;;;;;;;5.85;3.97;;;21.60;99.90;;;;;;5024322;28;20025;-87
2023/06/26 01:38:50;;;;;;;6.05;3.90;;;21.60;99.90;;;;;;5043275;28;20064;-86
2023/06/26 01:41:17;;;;;;;5.35;4.47;;;21.60;99.90;;;;;;5036169;28;20028;-89
2023/06/26 01:44:02;;;;;;;6.85;4.30;;;21.60;99.90;;;;;;5040936;28;20486;-84
2023/06/26 01:46:42;;;;;;;5.13;3.45;;;21.60;99.90;;;;;;5039455;28;20029;-88
2023/06/26 01:49:33;;;;;;;7.57;4.80;;;21.60;99.90;;;;;;5042417;28;20026;-86
2023/06/26 01:52:22;;;;;;;7.47;4.35;;;21.50;99.90;;;;;;5041413;28;20029;-86
2023/06/26 01:55:03;;;;;;;5.68;4.07;;;21.50;99.90;;;;;;5034302;28;20044;-87
2023/06/26 01:57:31;;;;;;;4.20;3.53;;;21.50;99.90;;;;;;5034939;28;20036;-86
2023/06/26 01:59:57;;;;;;;7.90;3.92;;;21.50;99.90;;;;;;5032146;28;20442;-83
2023/06/26 02:02:28;;;;;;;6.65;4.15;;;21.50;99.90;;;;;;5028239;28;20160;-86
2023/06/26 02:04:53;;;;;;;6.10;3.97;;;21.50;99.90;;;;;;5013248;28;20037;-87
2023/06/26 02:07:19;;;;;;;5.13;3.85;;;21.50;99.90;;;;;;5035240;28;20032;-86
2023/06/26 02:09:44;;;;;;;12.57;4.35;;;21.40;99.90;;;;;;5026918;28;20013;-85
2023/06/26 02:12:10;;;;;;;6.95;3.47;;;21.50;99.90;;;;;;5024969;28;20165;-83
2023/06/26 02:14:35;;;;;;;6.55;4.40;;;21.40;99.90;;;;;;5043871;28;20025;-85
2023/06/26 02:17:01;;;;;;;5.25;4.10;;;21.40;99.90;;;;;;5045611;28;20513;-85
2023/06/26 02:19:27;;;;;;;4.20;3.78;;;21.40;99.90;;;;;;5035542;28;20037;-87
2023/06/26 02:21:53;;;;;;;4.00;3.50;;;21.40;99.90;;;;;;5039567;28;20040;-85
2023/06/26 02:24:19;;;;;;;4.90;3.25;;;21.40;99.90;;;;;;5037783;28;20588;-87
2023/06/26 02:26:45;;;;;;;5.93;3.72;;;21.40;99.90;;;;;;5042899;28;20033;-88
2023/06/26 02:29:11;;;;;;;7.38;3.72;;;21.30;99.90;;;;;;5045266;28;20486;-89
2023/06/26 02:31:37;;;;;;;5.65;3.70;;;21.30;99.90;;;;;;5040379;28;20044;-88
2023/06/26 02:34:03;;;;;;;6.05;3.15;;;21.30;99.90;;;;;;5021986;28;20028;-87
2023/06/26 02:36:29;;;;;;;7.38;4.10;;;21.20;99.90;;;;;;5039514;28;20021;-87
2023/06/26 02:38:54;;;;;;;6.20;3.33;;;21.20;99.90;;;;;;5041333;28;20053;-88
2023/06/26 02:41:19;;;;;;;4.35;3.60;;;21.20;99.90;;;;;;5041570;28;20023;-88
2023/06/26 02:43:45;;;;;;;4.80;3.70;;;21.20;99.90;;;;;;5031442;28;20079;-84
2023/06/26 02:46:11;;;;;;;6.68;3.95;;;21.20;99.90;;;;;;5040491;28;20044;-87
2023/06/26 02:48:36;;;;;;;4.93;3.72;;;21.20;99.90;;;;;;5033801;28;20029;-88
2023/06/26 02:51:01;;;;;;;7.30;4.13;;;21.20;99.90;;;;;;5039658;28;20432;-84
2023/06/26 02:53:27;;;;;;;6.28;3.97;;;21.20;99.90;;;;;;5034743;28;20033;-87
2023/06/26 02:55:53;;;;;;;8.10;4.25;;;21.20;99.90;;;;;;5040459;28;20025;-87
2023/06/26 02:58:18;;;;;;;7.55;3.65;;;21.20;99.90;;;;;;5030551;28;20017;-87
2023/06/26 03:00:46;;;;;;;6.55;4.28;;;21.20;99.90;;;;;;5040507;28;20418;-83
2023/06/26 03:03:13;;;;;;;5.15;4.03;;;21.20;99.90;;;;;;5036188;28;20025;-83
2023/06/26 03:05:38;;;;;;;4.70;3.72;;;21.30;99.90;;;;;;5027102;28;20482;-86
2023/06/26 03:08:04;;;;;;;4.10;3.47;;;21.30;99.90;;;;;;5034533;28;20040;-84
2023/06/26 03:10:29;;;;;;;5.47;4.22;;;21.30;99.90;;;;;;5042306;28;20029;-87
2023/06/26 03:12:55;;;;;;;9.00;3.83;;;21.30;99.90;;;;;;5031928;28;20034;-86
2023/06/26 03:15:21;;;;;;;4.35;3.92;;;21.30;99.90;;;;;;5040634;28;20024;-89
2023/06/26 03:17:47;;;;;;;5.40;3.67;;;21.30;99.90;;;;;;5044098;28;20080;-88
2023/06/26 03:20:12;;;;;;;4.80;4.03;;;21.30;99.90;;;;;;5040114;28;20028;-87
2023/06/26 03:22:38;;;;;;;5.88;4.10;;;21.30;99.90;;;;;;5042391;28;20045;-88
2023/06/26 03:25:04;;;;;;;6.40;4.18;;;21.20;99.90;;;;;;5045359;28;20036;-88
2023/06/26 03:27:30;;;;;;;4.28;3.88;;;21.30;99.90;;;;;;5040591;28;20029;-88
2023/06/26 03:29:56;;;;;;;11.52;4.13;;;21.20;99.90;;;;;;5039827;28;20047;-89
2023/06/26 03:32:21;;;;;;;5.38;4.15;;;21.20;99.90;;;;;;5034000;28;20032;-88
2023/06/26 03:34:47;;;;;;;5.68;4.57;;;21.20;99.90;;;;;;5042731;28;20402;-88
2023/06/26 03:37:12;;;;;;;6.55;4.10;;;21.20;99.90;;;;;;5039375;28;20120;-88
2023/06/26 03:39:38;;;;;;;4.60;4.20;;;21.30;99.90;;;;;;5033769;28;20095;-89
2023/06/26 03:42:04;;;;;;;5.65;4.70;;;21.20;99.90;;;;;;5039778;28;20052;-87
2023/06/26 03:44:29;;;;;;;6.72;4.30;;;21.20;99.90;;;;;;5032351;28;20131;-89
2023/06/26 03:46:55;;;;;;;5.07;3.90;;;21.20;99.90;;;;;;5041907;28;20029;-89
2023/06/26 03:49:20;;;;;;;5.32;4.28;;;21.20;99.90;;;;;;5044302;28;20029;-88
2023/06/26 03:51:46;;;;;;;6.53;4.55;;;21.30;99.90;;;;;;5040509;28;20025;-88
2023/06/26 03:54:12;;;;;;;5.10;4.35;;;21.30;99.90;;;;;;5028550;28;20037;-88
2023/06/26 03:56:37;;;;;;;4.38;3.92;;;21.30;99.90;;;;;;5037359;28;20056;-88
2023/06/26 03:59:03;;;;;;;5.28;4.25;;;21.30;99.90;;;;;;5022343;28;20641;-88
2023/06/26 04:01:28;;;;;;;6.78;4.70;;;21.30;99.90;;;;;;5037953;28;20470;-88
2023/06/26 04:03:54;;;;;;;5.88;4.15;;;21.30;99.90;;;;;;5035690;28;20033;-87
2023/06/26 04:06:20;;;;;;;4.50;3.75;;;21.30;99.90;;;;;;5031470;28;20082;-88
2023/06/26 04:08:48;;;;;;;6.70;4.70;;;21.30;99.90;;;;;;5041978;28;20098;-88
2023/06/26 04:11:14;;;;;;;6.97;4.80;;;21.30;99.90;;;;;;5018792;28;20123;-88
2023/06/26 04:13:39;;;;;;;6.00;4.18;;;21.40;99.90;;;;;;5030301;28;20112;-87
2023/06/26 04:16:06;;;;;;;11.38;4.45;;;21.50;99.90;;;;;;5040976;28;20033;-86
2023/06/26 04:18:32;;;;;;;7.50;5.10;;;21.60;99.90;;;;;;5037478;28;20071;-89
2023/06/26 04:21:12;;;;;;;6.68;4.70;;;21.70;99.90;;;;;;5032401;28;20032;-88
2023/06/26 04:23:39;;;;;;;5.90;4.15;;;21.70;99.90;;;;;;5045981;28;20052;-89
2023/06/26 04:26:08;;;;;;;4.22;3.63;;;21.70;99.90;;;;;;5044762;28;20047;-89
2023/06/26 04:28:34;;;;;;;5.57;4.50;;;21.70;99.90;;;;;;5032909;28;20091;-89
2023/06/26 04:31:01;;;;;;;6.40;4.55;;;21.70;99.90;;;;;;5041389;28;20025;-88
2023/06/26 04:33:27;;;;;;;5.05;4.30;;;21.70;99.90;;;;;;5047832;28;20079;-88
2023/06/26 04:35:53;;;;;;;8.70;4.82;;;21.70;99.90;;;;;;5044688;28;20049;-87
2023/06/26 04:38:21;;;;;;;7.57;5.55;;;21.70;99.90;;;;;;5047294;28;20364;-81
2023/06/26 04:40:49;;;;;;;10.70;5.15;;;21.70;99.90;;;;;;5023759;28;20099;-85
2023/06/26 04:43:15;;;;;;;10.10;5.00;;;21.80;99.90;;;;;;4970363;28;20032;-86
2023/06/26 04:45:41;;;;;;;5.93;4.95;;;21.90;99.90;;;;;;4929531;28;20044;-85
2023/06/26 04:48:06;;;;;;;6.85;4.78;;;21.90;99.90;;;;;;4925827;28;20038;-87
2023/06/26 04:50:33;;;;;;;8.82;5.35;;;22.00;99.90;;;;;;4932272;28;20074;-86
2023/06/26 04:52:59;;;;;;;5.85;4.97;;;21.90;99.90;;;;;;4931645;28;20043;-86
2023/06/26 04:55:25;;;;;;;5.75;4.63;;;21.90;99.90;;;;;;4928342;28;20114;-88
2023/06/26 04:57:50;;;;;;;7.25;4.80;;;21.90;99.90;;;;;;4935462;28;20039;-88
2023/06/26 05:00:16;;;;;;;7.00;5.22;;;21.90;99.90;;;;;;4938017;28;20058;-89
2023/06/26 05:02:42;;;;;;;5.72;4.53;;;21.90;99.90;;;;;;4923645;29;20032;-88
2023/06/26 05:05:08;;;;;;;6.82;4.97;;;22.00;99.90;;;;;;5002001;28;20054;-87
2023/06/26 05:07:33;;;;;;;7.65;5.13;;;22.00;99.90;;;;;;5013719;28;20498;-87
2023/06/26 05:09:59;;;;;;;8.00;5.20;;;22.10;99.90;;;;;;5006430;28;20080;-88
2023/06/26 05:12:25;;;;;;;9.40;5.45;;;22.20;99.90;;;;;;5023354;28;20031;-89
2023/06/26 05:14:50;;;;;;;5.70;4.88;;;22.20;99.90;;;;;;5026302;28;20040;-86
2023/06/26 05:17:16;;;;;;;8.82;5.63;;;22.30;99.90;;;;;;5024864;28;20025;-84
2023/06/26 05:19:42;;;;;;;6.53;5.00;;;22.40;99.90;;;;;;4950875;28;20032;-87
2023/06/26 05:22:08;;;;;;;10.70;5.00;;;22.50;99.90;;;;;;4937434;28;20444;-85
2023/06/26 05:24:38;;;;;;;6.40;4.70;;;22.50;99.90;;;;;;4922583;28;20071;-86
2023/06/26 05:28:05;;;;;;;8.35;6.35;;;22.60;99.90;;;;;;4933558;28;20040;-87
2023/06/26 05:30:30;;;;;;;9.80;5.57;;;22.60;99.90;;;;;;5023164;28;20807;-86
2023/06/26 05:32:59;;;;;;;7.38;5.20;;;22.80;99.90;;;;;;5023756;28;20021;-86
2023/06/26 05:35:27;;;;;;;10.00;5.53;;;22.80;99.90;;;;;;4944289;28;20023;-86
2023/06/26 05:37:54;;;;;;;5.47;4.57;;;22.90;99.90;;;;;;5008994;28;20120;-88
2023/06/26 05:40:20;;;;;;;6.80;5.43;;;23.00;99.90;;;;;;5040996;28;20049;-87
2023/06/26 05:42:46;;;;;;;13.00;5.97;;;23.10;99.90;;;;;;5039519;28;20029;-87
2023/06/26 05:45:12;;;;;;;7.95;5.43;;;23.20;99.90;;;;;;5041323;28;20033;-87
2023/06/26 05:47:37;;;;;;;6.07;4.97;;;23.20;99.90;;;;;;5039293;28;20375;-89
2023/06/26 05:50:04;;;;;;;7.55;5.72;;;23.30;99.90;;;;;;5045679;28;20025;-88
2023/06/26 05:52:30;;;;;;;6.50;5.68;;;23.30;99.90;;;;;;5038041;28;20025;-86
2023/06/26 05:55:00;;;;;;;11.32;5.80;;;23.40;99.90;;;;;;5012213;28;20033;-87
2023/06/26 05:57:28;;;;;;;7.80;5.63;;;23.40;99.90;;;;;;5042385;28;20426;-86
2023/06/26 05:59:54;;;;;;;6.45;5.30;;;23.40;99.90;;;;;;5041698;28;20457;-88
2023/06/26 06:02:19;;;;;;;14.55;5.82;;;23.40;99.90;;;;;;5042458;28;20075;-88
2023/06/26 06:04:45;;;;;;;8.32;5.88;;;23.40;99.90;;;;;;5038677;28;20037;-89
2023/06/26 06:07:11;;;;;;;9.27;5.50;;;23.50;99.90;;;;;;5046658;28;20075;-88
2023/06/26 06:09:37;;;;;;;7.13;5.43;;;23.50;99.90;;;;;;5042777;28;20038;-88
2023/06/26 06:12:07;;;;;;;5.80;5.20;;;23.50;99.90;;;;;;5042997;28;20025;-87
2023/06/26 06:14:35;;;;;;;8.23;5.90;;;23.60;99.90;;;;;;5026992;28;20074;-85
2023/06/26 06:17:01;;;;;;;8.48;5.70;;;23.60;99.90;;;;;;5046306;28;20033;-84
2023/06/26 06:19:27;;;;;;;18.67;5.68;;;23.70;99.90;;;;;;5042020;28;20139;-88
2023/06/26 06:21:53;;;;;;;9.68;5.68;;;23.70;99.90;;;;;;5039616;28;20056;-84
2023/06/26 06:24:19;;;;;;;7.20;5.55;;;23.70;99.90;;;;;;5033030;28;20069;-83
2023/06/26 06:26:44;;;;;;;6.35;5.18;;;23.80;99.90;;;;;;5036508;28;20040;-82
2023/06/26 06:29:10;;;;;;;7.72;4.85;;;23.90;99.90;;;;;;5037807;28;20025;-87
2023/06/26 06:31:36;;;;;;;7.60;5.65;;;24.00;99.90;;;;;;5045362;28;20057;-85
2023/06/26 06:34:01;;;;;;;11.45;5.60;;;24.00;99.90;;;;;;5037486;28;20111;-86
2023/06/26 06:36:27;;;;;;;9.15;5.40;;;24.10;99.90;;;;;;5035884;28;20037;-86
2023/06/26 06:38:52;;;;;;;6.88;5.32;;;24.20;99.90;;;;;;5018930;28;20049;-85
2023/06/26 06:41:19;;;;;;;10.95;5.57;;;24.20;99.90;;;;;;5044796;28;20033;-86
2023/06/26 06:43:45;;;;;;;6.97;4.95;;;24.20;99.90;;;;;;5033476;28;20473;-83
2023/06/26 06:46:10;;;;;;;8.23;5.47;;;24.30;99.90;;;;;;5041316;28;20090;-82
2023/06/26 06:48:36;;;;;;;9.85;5.60;;;24.30;99.90;;;;;;5040083;28;20037;-84
2023/06/26 06:51:02;;;;;;;10.98;5.25;;;24.40;99.90;;;;;;5042175;28;20037;-85
2023/06/26 06:53:27;;;;;;;7.88;6.43;;;24.50;99.90;;;;;;5037660;28;20477;-85
2023/06/26 06:55:53;;;;;;;7.00;5.15;;;24.50;99.90;;;;;;5037036;28;20030;-83
2023/06/26 06:58:22;;;;;;;9.15;5.95;;;24.50;99.90;;;;;;5043053;28;20404;-85
2023/06/26 07:00:48;;;;;;;7.10;5.55;;;24.60;99.90;;;;;;5043801;28;20044;-86
2023/06/26 07:03:14;;;;;;;7.93;5.25;;;24.60;99.90;;;;;;5042195;28;20029;-85
2023/06/26 07:05:41;;;;;;;7.53;5.68;;;24.70;99.90;;;;;;5034925;28;20508;-85
2023/06/26 07:08:08;;;;;;;7.80;5.78;;;24.70;99.90;;;;;;5037378;28;20041;-84
2023/06/26 07:10:34;;;;;;;14.05;6.03;;;24.70;99.90;;;;;;5039520;28;20056;-83
2023/06/26 07:12:59;;;;;;;13.13;5.47;;;24.80;99.90;;;;;;5015369;28;20485;-84
2023/06/26 07:15:25;;;;;;;12.15;5.38;;;24.80;99.90;;;;;;5040525;28;20433;-87
2023/06/26 07:17:50;;;;;;;7.72;5.53;;;24.80;99.90;;;;;;5042288;28;20044;-85
2023/06/26 07:20:16;;;;;;;7.32;5.28;;;24.90;99.90;;;;;;5035575;28;20025;-84
2023/06/26 07:22:43;;;;;;;6.50;5.10;;;24.90;99.90;;;;;;5041542;28;20029;-86
2023/06/26 07:25:09;;;;;;;9.57;5.60;;;25.10;99.90;;;;;;5040071;28;20044;-85
2023/06/26 07:27:35;;;;;;;7.70;6.22;;;25.10;99.90;;;;;;5034782;28;20032;-83
2023/06/26 07:30:01;;;;;;;14.73;5.65;;;25.20;99.90;;;;;;5029989;28;20049;-85
2023/06/26 07:32:27;;;;;;;7.25;5.30;;;25.30;99.90;;;;;;5033969;28;20119;-85
2023/06/26 07:34:52;;;;;;;6.72;4.88;;;25.30;99.90;;;;;;5041328;28;20036;-85
2023/06/26 07:37:18;;;;;;;9.02;5.45;;;25.40;99.90;;;;;;5024179;28;20017;-85
2023/06/26 07:39:43;;;;;;;11.45;6.05;;;25.40;99.90;;;;;;5039880;28;20053;-83
2023/06/26 07:42:09;;;;;;;7.57;5.80;;;25.40;99.90;;;;;;5016546;28;20533;-87
2023/06/26 07:44:34;;;;;;;7.93;5.80;;;25.50;99.90;;;;;;5031713;28;20037;-85
2023/06/26 07:47:00;;;;;;;8.43;6.40;;;25.60;99.90;;;;;;5038466;28;20120;-86
2023/06/26 07:49:28;;;;;;;6.88;5.63;;;25.80;99.90;;;;;;5026749;28;20025;-87
2023/06/26 07:51:54;;;;;;;10.40;6.25;;;25.80;99.90;;;;;;5036113;28;20497;-85
2023/06/26 07:54:19;;;;;;;8.18;5.97;;;25.80;99.90;;;;;;5044275;28;20021;-83
2023/06/26 07:57:03;;;;;;;7.43;5.78;;;25.80;99.90;;;;;;5038883;28;20021;-85
2023/06/26 07:59:29;;;;;;;11.48;5.82;;;25.80;99.90;;;;;;5034856;28;20432;-85
2023/06/26 08:01:57;;;;;;;6.55;5.25;;;25.80;99.90;;;;;;5038712;28;20056;-85
2023/06/26 08:04:28;;;;;;;7.28;5.63;;;26.00;99.90;;;;;;5033359;28;20427;-85
2023/06/26 08:06:55;;;;;;;6.85;5.45;;;26.10;99.90;;;;;;5038243;28;20079;-86
2023/06/26 08:09:23;;;;;;;5.95;5.38;;;26.10;99.90;;;;;;5041468;28;20029;-84
2023/06/26 08:11:48;;;;;;;7.35;6.15;;;26.10;99.90;;;;;;5037415;28;20124;-87
2023/06/26 08:14:14;;;;;;;8.30;6.22;;;26.10;99.90;;;;;;5036373;28;20468;-87
2023/06/26 08:16:40;;;;;;;11.18;6.00;;;26.10;99.90;;;;;;5031951;28;20072;-86
2023/06/26 08:19:06;;;;;;;8.30;5.90;;;26.10;99.90;;;;;;5035780;28;20478;-85
2023/06/26 08:21:31;;;;;;;7.35;5.78;;;26.10;99.90;;;;;;5027077;28;20378;-85
2023/06/26 08:23:57;;;;;;;6.72;6.03;;;26.10;99.90;;;;;;5027495;28;20028;-87
2023/06/26 08:26:23;;;;;;;8.50;6.28;;;26.10;99.90;;;;;;5037877;28;20038;-86
2023/06/26 08:28:48;;;;;;;7.38;6.13;;;26.10;99.90;;;;;;5041174;28;20060;-85
2023/06/26 08:31:14;;;;;;;10.05;6.72;;;26.10;99.90;;;;;;5036937;28;20029;-86
2023/06/26 08:33:39;;;;;;;6.88;5.43;;;26.10;99.90;;;;;;5035766;28;20025;-85
2023/06/26 08:36:05;;;;;;;12.07;6.15;;;26.20;99.90;;;;;;5035635;28;20024;-83
2023/06/26 08:38:30;;;;;;;8.05;6.30;;;26.30;99.90;;;;;;5036640;28;20024;-85
2023/06/26 08:40:56;;;;;;;12.50;5.82;;;26.40;99.90;;;;;;5040158;28;20116;-91
2023/06/26 08:43:22;;;;;;;14.18;6.10;;;26.40;99.50;;;;;;5031843;28;20103;-86
2023/06/26 08:45:54;;;;;;;14.68;6.63;;;26.50;99.90;;;;;;5032219;28;20080;-87
2023/06/26 08:48:21;;;;;;;12.88;6.07;;;26.60;99.90;;;;;;5040093;28;20430;-89
2023/06/26 08:50:49;;;;;;;8.68;5.95;;;26.60;99.90;;;;;;5032640;28;20033;-86
2023/06/26 08:53:30;;;;;;;6.70;5.88;;;26.70;97.30;;;;;;5030254;28;20042;-89
2023/06/26 08:55:58;;;;;;;9.20;5.70;;;26.80;95.90;;;;;;5039230;28;20029;-84
2023/06/26 08:58:24;;;;;;;11.38;6.60;;;26.80;98.60;;;;;;5035936;28;20036;-85
2023/06/26 09:00:51;;;;;;;12.73;6.63;;;26.90;99.00;;;;;;5031816;28;20445;-85
2023/06/26 09:03:17;;;;;;;7.72;5.65;;;27.00;92.50;;;;;;5032830;28;20088;-87
2023/06/26 09:05:43;;;;;;;11.68;6.03;;;27.00;94.70;;;;;;5038184;28;20053;-85
2023/06/26 09:08:08;;;;;;;7.07;5.60;;;27.10;96.30;;;;;;5032477;28;20041;-83
2023/06/26 09:10:34;;;;;;;7.28;5.88;;;27.20;97.10;;;;;;5042950;28;20071;-84
2023/06/26 09:13:03;;;;;;;8.40;5.45;;;27.20;94.90;;;;;;5040132;28;20029;-88
2023/06/26 09:15:46;;;;;;;8.15;5.80;;;27.20;95.70;;;;;;5041356;28;20082;-86
2023/06/26 09:18:12;;;;;;;7.93;6.47;;;27.10;97.30;;;;;;5023985;28;20029;-92
2023/06/26 09:20:38;;;;;;;8.20;5.70;;;27.10;95.50;;;;;;5038175;28;20036;-86
2023/06/26 09:23:05;;;;;;;12.02;5.88;;;27.10;96.90;;;;;;5039502;28;20023;-85
2023/06/26 09:25:30;;;;;;;8.75;5.70;;;27.10;92.60;;;;;;5040240;28;20037;-91
2023/06/26 09:27:56;;;;;;;9.60;5.75;;;27.10;95.60;;;;;;5034428;28;20036;-86
2023/06/26 09:30:22;;;;;;;7.15;5.88;;;27.10;95.70;;;;;;5038692;28;20421;-89
2023/06/26 09:32:49;;;;;;;19.10;6.00;;;27.20;94.60;;;;;;5031005;28;20032;-89
2023/06/26 09:35:15;;;;;;;11.45;5.53;;;27.20;98.10;;;;;;5043564;28;20029;-87
2023/06/26 09:37:40;;;;;;;7.47;5.50;;;27.20;94.50;;;;;;5045438;28;20468;-86
2023/06/26 09:40:07;;;;;;;10.13;5.97;;;27.30;96.30;;;;;;5037037;28;20140;-87
2023/06/26 09:42:32;;;;;;;11.13;5.90;;;27.30;96.30;;;;;;5041472;28;20029;-88
2023/06/26 09:44:58;;;;;;;11.63;6.22;;;27.40;97.30;;;;;;5044863;28;20271;-86
2023/06/26 09:47:23;;;;;;;10.23;6.22;;;27.40;84.00;;;;;;5022827;28;20126;-89
2023/06/26 09:49:50;;;;;;;10.95;6.35;;;27.40;87.70;;;;;;5035989;28;20032;-85
2023/06/26 09:52:16;;;;;;;10.68;6.10;;;27.50;82.10;;;;;;5038763;28;20498;-86
2023/06/26 09:54:44;;;;;;;8.98;6.18;;;27.50;80.40;;;;;;5037172;28;20033;-86
2023/06/26 09:57:12;;;;;;;10.43;6.63;;;27.40;90.60;;;;;;5040745;28;20064;-85
2023/06/26 09:59:39;;;;;;;7.57;5.45;;;27.50;85.40;;;;;;5042131;28;20029;-84
2023/06/26 10:02:08;;;;;;;8.60;6.65;;;27.40;80.90;;;;;;5031677;28;20036;-87
2023/06/26 10:04:36;;;;;;;15.43;6.20;;;27.50;85.70;;;;;;5040520;28;20025;-88
2023/06/26 10:07:05;;;;;;;11.80;6.40;;;27.50;88.40;;;;;;5039792;28;20043;-87
2023/06/26 10:09:31;;;;;;;9.18;6.13;;;27.50;89.80;;;;;;5036790;28;20029;-83
2023/06/26 10:12:07;;;;;;;7.68;6.00;;;27.50;92.70;;;;;;5029896;28;20032;-85
2023/06/26 10:14:37;;;;;;;9.20;5.57;;;27.60;87.80;;;;;;5036327;28;20600;-86
2023/06/26 10:17:18;;;;;;;7.50;5.43;;;27.60;91.40;;;;;;5041268;28;20078;-86
2023/06/26 10:19:45;;;;;;;12.57;6.47;;;27.60;95.60;;;;;;5044370;28;20033;-88
2023/06/26 10:22:14;;;;;;;14.27;6.68;;;27.70;96.50;;;;;;5039917;28;20021;-87
2023/06/26 10:24:41;;;;;;;6.95;5.85;;;27.80;91.10;;;;;;5037258;28;20055;-87
2023/06/26 10:27:20;;;;;;;8.18;6.13;;;27.90;87.10;;;;;;5039766;28;20294;-89
2023/06/26 10:29:50;;;;;;;9.75;6.22;;;27.90;89.80;;;;;;5039218;28;20040;-89
2023/06/26 10:32:17;;;;;;;13.18;6.22;;;28.10;86.10;;;;;;5036686;28;20514;-87
2023/06/26 10:34:44;;;;;;;8.52;5.90;;;28.10;89.00;;;;;;5034873;28;20044;-82
2023/06/26 10:37:09;;;;;;;8.60;5.88;;;28.10;79.60;;;;;;5032389;28;20029;-88
2023/06/26 10:39:59;;;;;;;11.02;5.97;;;28.10;86.60;;;;;;5042089;28;20053;-88
2023/06/26 10:42:36;;;;;;;8.77;5.88;;;28.20;75.90;;;;;;5039659;28;20029;-87
2023/06/26 10:45:19;;;;;;;9.73;6.40;;;28.30;69.70;;;;;;5037889;28;20041;-87
2023/06/26 10:47:47;;;;;;;8.38;6.05;;;28.30;76.20;;;;;;5039491;28;20040;-87
2023/06/26 10:50:18;;;;;;;14.35;5.60;;;28.30;70.60;;;;;;5034142;28;20025;-89
2023/06/26 10:52:43;;;;;;;13.48;5.47;;;28.40;78.50;;;;;;5037394;28;20029;-85
2023/06/26 10:55:09;;;;;;;7.15;5.47;;;28.30;89.50;;;;;;5036023;28;20021;-86
2023/06/26 10:57:36;;;;;;;7.22;5.60;;;28.30;90.50;;;;;;5034382;28;20048;-89
2023/06/26 11:00:10;;;;;;;7.57;6.07;;;28.40;86.10;;;;;;5037189;28;20029;-87
2023/06/26 11:02:50;;;;;;;7.20;4.95;;;28.50;88.80;;;;;;5014819;28;20065;-88
2023/06/26 11:05:26;;;;;;;7.20;5.65;;;28.60;83.00;;;;;;5038118;28;20037;-86
2023/06/26 11:08:12;;;;;;;8.57;6.22;;;28.60;72.80;;;;;;5044986;28;20025;-88
2023/06/26 11:10:55;;;;;;;7.55;5.78;;;28.70;78.10;;;;;;5042145;28;20043;-83
2023/06/26 11:13:21;;;;;;;6.50;5.03;;;28.70;72.90;;;;;;5031031;28;20045;-86
2023/06/26 11:15:48;;;;;;;6.78;5.03;;;28.80;74.80;;;;;;5038331;28;20037;-88
2023/06/26 11:18:14;;;;;;;6.53;5.30;;;28.80;75.40;;;;;;5041504;28;20059;-88
2023/06/26 11:20:40;;;;;;;7.03;5.38;;;28.70;76.60;;;;;;5019373;28;20132;-90
2023/06/26 11:23:08;;;;;;;6.65;5.40;;;28.70;71.50;;;;;;5034078;28;20033;-89
2023/06/26 11:25:37;;;;;;;8.48;6.03;;;28.70;73.60;;;;;;5037349;28;20441;-86
2023/06/26 11:28:06;;;;;;;9.32;5.97;;;28.70;71.40;;;;;;5045634;28;20074;-86
2023/06/26 11:30:32;;;;;;;8.80;5.97;;;28.80;65.90;;;;;;5036344;28;20063;-88
2023/06/26 11:33:08;;;;;;;8.13;6.03;;;28.80;62.30;;;;;;5042231;28;20029;-87
2023/06/26 11:35:34;;;;;;;6.63;5.43;;;28.90;59.30;;;;;;5037287;28;20054;-90
2023/06/26 11:38:04;;;;;;;7.45;5.40;;;28.90;61.90;;;;;;5034629;28;20021;-87
2023/06/26 11:40:31;;;;;;;7.13;5.50;;;29.10;65.70;;;;;;5036791;28;20636;-88
2023/06/26 11:43:03;;;;;;;15.88;5.85;;;29.10;64.40;;;;;;5041888;28;20036;-89
2023/06/26 11:45:32;;;;;;;6.55;5.53;;;29.00;67.60;;;;;;5044070;28;20402;-85
2023/06/26 11:47:58;;;;;;;10.18;5.72;;;29.00;67.80;;;;;;5038638;28;20470;-87
2023/06/26 11:50:24;;;;;;;7.82;5.95;;;29.10;71.10;;;;;;5026913;28;20025;-86
2023/06/26 11:52:56;;;;;;;13.23;6.35;;;29.10;74.60;;;;;;5034353;28;20037;-87
2023/06/26 11:55:23;;;;;;;8.00;6.03;;;29.20;75.70;;;;;;5038938;28;20660;-87
2023/06/26 11:57:56;;;;;;;8.98;5.88;;;29.40;66.60;;;;;;5036513;28;20171;-90
2023/06/26 12:00:22;;;;;;;11.70;6.00;;;29.40;73.20;;;;;;5039394;28;20359;-88
2023/06/26 12:02:49;;;;;;;7.68;6.55;;;29.50;71.00;;;;;;5040190;28;20037;-85
2023/06/26 12:05:15;;;;;;;8.57;6.07;;;29.40;68.70;;;;;;5041929;28;20049;-86
2023/06/26 12:07:47;;;;;;;8.13;6.93;;;29.20;73.00;;;;;;5025979;28;20094;-87
2023/06/26 12:10:14;;;;;;;9.38;6.32;;;28.90;97.50;;;;;;5041056;28;20025;-87
2023/06/26 12:12:41;;;;;;;10.80;7.65;;;28.50;99.90;;;;;;5039666;28;20040;-86
2023/06/26 12:15:08;;;;;;;12.50;7.00;;;28.20;99.90;;;;;;5025430;28;20025;-90
2023/06/26 12:17:39;;;;;;;14.30;8.25;;;27.80;99.90;;;;;;5038898;28;20032;-87
2023/06/26 12:20:05;;;;;;;22.42;8.05;;;27.40;99.90;;;;;;5040338;28;20029;-88
2023/06/26 12:22:35;;;;;;;12.40;8.45;;;27.10;99.90;;;;;;5034582;28;20029;-91
2023/06/26 12:25:06;;;;;;;13.93;8.48;;;26.90;99.90;;;;;;5030852;28;20483;-87
2023/06/26 12:27:32;;;;;;;17.23;7.65;;;26.60;99.90;;;;;;5039342;28;20032;-85
2023/06/26 12:29:58;;;;;;;17.38;8.35;;;26.40;99.90;;;;;;5038989;28;20025;-88
2023/06/26 12:32:26;;;;;;;22.55;8.95;;;26.20;99.90;;;;;;5039063;28;20536;-87
2023/06/26 12:34:53;;;;;;;14.48;7.97;;;26.00;99.90;;;;;;5032477;28;20084;-85
2023/06/26 12:37:18;;;;;;;19.15;7.80;;;25.80;99.90;;;;;;5034151;28;20033;-87
2023/06/26 12:39:55;;;;;;;23.17;8.30;;;25.60;99.90;;;;;;5018997;28;20045;-85
2023/06/26 12:42:28;;;;;;;15.15;8.05;;;25.40;99.90;;;;;;5032457;28;20045;-88
2023/06/26 12:44:56;;;;;;;17.02;8.50;;;25.20;99.90;;;;;;5046545;28;20045;-86
2023/06/26 12:47:26;;;;;;;19.65;7.90;;;25.10;99.90;;;;;;5018611;28;20233;-88